sensor_id;sensor_type;location;lat;lon;timestamp;P1;durP1;ratioP1;P2;durP2;ratioP2
69985;SDS011;57328;52.054;5.294;2022-08-01T00:00:02;8.20;;;3.53;;
69985;SDS011;57328;52.054;5.294;2022-08-01T00:02:30;8.80;;;3.88;;
69985;SDS011;57328;52.054;5.294;2022-08-01T00:04:58;7.80;;;3.17;;
69985;SDS011;57328;52.054;5.294;2022-08-01T00:07:26;7.97;;;3.50;;
69985;SDS011;57328;52.054;5.294;2022-08-01T00:09:59;7.45;;;3.13;;
69985;SDS011;57328;52.054;5.294;2022-08-01T00:12:26;6.97;;;3.20;;
69985;SDS011;57328;52.054;5.294;2022-08-01T00:14:54;7.35;;;2.92;;
69985;SDS011;57328;52.054;5.294;2022-08-01T00:17:21;7.45;;;3.20;;
69985;SDS011;57328;52.054;5.294;2022-08-01T00:19:48;7.93;;;3.65;;
69985;SDS011;57328;52.054;5.294;2022-08-01T00:22:15;6.45;;;3.10;;
69985;SDS011;57328;52.054;5.294;2022-08-01T00:24:42;9.15;;;3.92;;
69985;SDS011;57328;52.054;5.294;2022-08-01T00:27:10;8.13;;;3.35;;
69985;SDS011;57328;52.054;5.294;2022-08-01T00:29:37;11.02;;;4.10;;
69985;SDS011;57328;52.054;5.294;2022-08-01T00:32:24;9.07;;;3.88;;
69985;SDS011;57328;52.054;5.294;2022-08-01T00:34:51;10.50;;;4.30;;
69985;SDS011;57328;52.054;5.294;2022-08-01T00:37:18;9.00;;;3.92;;
69985;SDS011;57328;52.054;5.294;2022-08-01T00:39:45;11.13;;;4.32;;
69985;SDS011;57328;52.054;5.294;2022-08-01T00:42:13;11.18;;;4.10;;
69985;SDS011;57328;52.054;5.294;2022-08-01T00:44:40;8.57;;;3.80;;
69985;SDS011;57328;52.054;5.294;2022-08-01T00:47:07;8.50;;;3.80;;
69985;SDS011;57328;52.054;5.294;2022-08-01T00:49:35;10.38;;;3.90;;
69985;SDS011;57328;52.054;5.294;2022-08-01T00:52:03;8.85;;;4.35;;
69985;SDS011;57328;52.054;5.294;2022-08-01T00:54:31;9.40;;;4.30;;
69985;SDS011;57328;52.054;5.294;2022-08-01T00:56:58;10.15;;;4.00;;
69985;SDS011;57328;52.054;5.294;2022-08-01T00:59:26;13.00;;;4.35;;
69985;SDS011;57328;52.054;5.294;2022-08-01T01:01:54;8.95;;;4.50;;
69985;SDS011;57328;52.054;5.294;2022-08-01T01:04:21;11.93;;;4.90;;
69985;SDS011;57328;52.054;5.294;2022-08-01T01:12:01;14.18;;;5.60;;
69985;SDS011;57328;52.054;5.294;2022-08-01T01:17:03;11.65;;;4.53;;
69985;SDS011;57328;52.054;5.294;2022-08-01T01:19:33;13.38;;;5.60;;
69985;SDS011;57328;52.054;5.294;2022-08-01T01:25:08;15.13;;;6.25;;
69985;SDS011;57328;52.054;5.294;2022-08-01T01:27:39;13.82;;;6.20;;
69985;SDS011;57328;52.054;5.294;2022-08-01T01:30:09;14.63;;;6.53;;
69985;SDS011;57328;52.054;5.294;2022-08-01T01:32:40;15.25;;;6.90;;
69985;SDS011;57328;52.054;5.294;2022-08-01T01:35:19;17.40;;;6.72;;
69985;SDS011;57328;52.054;5.294;2022-08-01T01:37:48;15.88;;;6.65;;
69985;SDS011;57328;52.054;5.294;2022-08-01T01:40:16;13.77;;;6.57;;
69985;SDS011;57328;52.054;5.294;2022-08-01T01:42:44;15.38;;;7.05;;
69985;SDS011;57328;52.054;5.294;2022-08-01T01:45:12;15.75;;;6.25;;
69985;SDS011;57328;52.054;5.294;2022-08-01T01:47:40;13.07;;;6.05;;
69985;SDS011;57328;52.054;5.294;2022-08-01T01:50:08;14.75;;;6.25;;
69985;SDS011;57328;52.054;5.294;2022-08-01T01:52:35;12.80;;;5.65;;
69985;SDS011;57328;52.054;5.294;2022-08-01T01:55:05;15.05;;;6.40;;
69985;SDS011;57328;52.054;5.294;2022-08-01T01:57:35;13.10;;;5.90;;
69985;SDS011;57328;52.054;5.294;2022-08-01T02:00:04;15.85;;;6.38;;
69985;SDS011;57328;52.054;5.294;2022-08-01T02:02:33;14.55;;;6.85;;
69985;SDS011;57328;52.054;5.294;2022-08-01T02:07:28;19.73;;;6.53;;
69985;SDS011;57328;52.054;5.294;2022-08-01T02:09:56;17.27;;;6.32;;
69985;SDS011;57328;52.054;5.294;2022-08-01T02:12:23;12.32;;;5.53;;
69985;SDS011;57328;52.054;5.294;2022-08-01T02:14:51;16.20;;;6.07;;
69985;SDS011;57328;52.054;5.294;2022-08-01T02:17:20;17.20;;;6.53;;
69985;SDS011;57328;52.054;5.294;2022-08-01T02:19:47;16.05;;;6.22;;
69985;SDS011;57328;52.054;5.294;2022-08-01T02:22:24;15.82;;;6.60;;
69985;SDS011;57328;52.054;5.294;2022-08-01T02:24:59;13.73;;;5.85;;
69985;SDS011;57328;52.054;5.294;2022-08-01T02:27:30;12.70;;;4.90;;
69985;SDS011;57328;52.054;5.294;2022-08-01T02:30:01;14.90;;;5.90;;
69985;SDS011;57328;52.054;5.294;2022-08-01T02:32:31;13.52;;;5.75;;
69985;SDS011;57328;52.054;5.294;2022-08-01T02:35:02;15.93;;;5.85;;
69985;SDS011;57328;52.054;5.294;2022-08-01T02:39:56;16.73;;;6.18;;
69985;SDS011;57328;52.054;5.294;2022-08-01T02:42:24;15.40;;;5.50;;
69985;SDS011;57328;52.054;5.294;2022-08-01T02:44:53;13.20;;;5.60;;
69985;SDS011;57328;52.054;5.294;2022-08-01T02:47:21;12.82;;;5.65;;
69985;SDS011;57328;52.054;5.294;2022-08-01T02:49:49;12.55;;;5.38;;
69985;SDS011;57328;52.054;5.294;2022-08-01T02:52:20;14.40;;;5.32;;
69985;SDS011;57328;52.054;5.294;2022-08-01T02:54:48;15.65;;;5.97;;
69985;SDS011;57328;52.054;5.294;2022-08-01T02:57:16;15.30;;;5.95;;
69985;SDS011;57328;52.054;5.294;2022-08-01T02:59:45;14.90;;;5.50;;
69985;SDS011;57328;52.054;5.294;2022-08-01T03:02:13;14.82;;;6.05;;
69985;SDS011;57328;52.054;5.294;2022-08-01T03:04:41;14.27;;;5.68;;
69985;SDS011;57328;52.054;5.294;2022-08-01T03:07:08;12.95;;;5.82;;
69985;SDS011;57328;52.054;5.294;2022-08-01T03:09:37;14.65;;;5.65;;
69985;SDS011;57328;52.054;5.294;2022-08-01T03:12:06;9.55;;;4.43;;
69985;SDS011;57328;52.054;5.294;2022-08-01T03:14:35;13.77;;;5.30;;
69985;SDS011;57328;52.054;5.294;2022-08-01T03:17:03;10.48;;;4.80;;
69985;SDS011;57328;52.054;5.294;2022-08-01T03:19:31;14.18;;;5.82;;
69985;SDS011;57328;52.054;5.294;2022-08-01T03:21:58;12.27;;;5.45;;
69985;SDS011;57328;52.054;5.294;2022-08-01T03:24:26;16.58;;;5.95;;
69985;SDS011;57328;52.054;5.294;2022-08-01T03:26:53;16.70;;;5.93;;
69985;SDS011;57328;52.054;5.294;2022-08-01T03:29:25;13.05;;;5.55;;
69985;SDS011;57328;52.054;5.294;2022-08-01T03:31:52;14.68;;;5.85;;
69985;SDS011;57328;52.054;5.294;2022-08-01T03:34:20;11.57;;;5.20;;
69985;SDS011;57328;52.054;5.294;2022-08-01T03:36:49;10.30;;;4.68;;
69985;SDS011;57328;52.054;5.294;2022-08-01T03:39:16;11.27;;;5.28;;
69985;SDS011;57328;52.054;5.294;2022-08-01T03:44:15;16.15;;;5.85;;
69985;SDS011;57328;52.054;5.294;2022-08-01T03:46:43;7.95;;;3.83;;
69985;SDS011;57328;52.054;5.294;2022-08-01T03:49:14;12.23;;;5.80;;
69985;SDS011;57328;52.054;5.294;2022-08-01T03:51:44;13.43;;;5.95;;
69985;SDS011;57328;52.054;5.294;2022-08-01T03:54:20;12.35;;;5.93;;
69985;SDS011;57328;52.054;5.294;2022-08-01T03:56:48;11.23;;;5.90;;
69985;SDS011;57328;52.054;5.294;2022-08-01T03:59:16;13.60;;;6.13;;
69985;SDS011;57328;52.054;5.294;2022-08-01T04:01:44;14.32;;;6.47;;
69985;SDS011;57328;52.054;5.294;2022-08-01T04:06:40;12.85;;;5.93;;
69985;SDS011;57328;52.054;5.294;2022-08-01T04:09:07;14.15;;;6.15;;
69985;SDS011;57328;52.054;5.294;2022-08-01T04:11:39;12.45;;;5.28;;
69985;SDS011;57328;52.054;5.294;2022-08-01T04:16:34;11.40;;;5.90;;
69985;SDS011;57328;52.054;5.294;2022-08-01T04:19:01;15.40;;;6.40;;
69985;SDS011;57328;52.054;5.294;2022-08-01T04:21:30;13.38;;;6.85;;
69985;SDS011;57328;52.054;5.294;2022-08-01T04:23:59;14.27;;;6.75;;
69985;SDS011;57328;52.054;5.294;2022-08-01T04:26:27;15.98;;;6.78;;
69985;SDS011;57328;52.054;5.294;2022-08-01T04:28:58;14.85;;;6.70;;
69985;SDS011;57328;52.054;5.294;2022-08-01T04:31:27;14.93;;;6.95;;
69985;SDS011;57328;52.054;5.294;2022-08-01T04:33:57;15.20;;;7.25;;
69985;SDS011;57328;52.054;5.294;2022-08-01T04:38:56;11.80;;;5.97;;
69985;SDS011;57328;52.054;5.294;2022-08-01T04:41:24;10.93;;;4.82;;
69985;SDS011;57328;52.054;5.294;2022-08-01T04:43:52;10.05;;;5.28;;
69985;SDS011;57328;52.054;5.294;2022-08-01T04:46:20;10.98;;;5.57;;
69985;SDS011;57328;52.054;5.294;2022-08-01T04:48:48;11.63;;;5.90;;
69985;SDS011;57328;52.054;5.294;2022-08-01T04:51:16;12.65;;;5.55;;
69985;SDS011;57328;52.054;5.294;2022-08-01T04:53:48;11.93;;;6.05;;
69985;SDS011;57328;52.054;5.294;2022-08-01T04:56:18;13.20;;;6.40;;
69985;SDS011;57328;52.054;5.294;2022-08-01T04:58:45;12.82;;;6.25;;
69985;SDS011;57328;52.054;5.294;2022-08-01T05:01:14;13.68;;;6.22;;
69985;SDS011;57328;52.054;5.294;2022-08-01T05:03:45;13.48;;;5.70;;
69985;SDS011;57328;52.054;5.294;2022-08-01T05:06:12;11.45;;;5.50;;
69985;SDS011;57328;52.054;5.294;2022-08-01T05:08:39;13.02;;;5.95;;
69985;SDS011;57328;52.054;5.294;2022-08-01T05:11:07;12.60;;;6.13;;
69985;SDS011;57328;52.054;5.294;2022-08-01T05:13:34;12.65;;;5.43;;
69985;SDS011;57328;52.054;5.294;2022-08-01T05:16:01;11.88;;;5.57;;
69985;SDS011;57328;52.054;5.294;2022-08-01T05:18:33;11.60;;;4.75;;
69985;SDS011;57328;52.054;5.294;2022-08-01T05:21:00;12.90;;;4.90;;
69985;SDS011;57328;52.054;5.294;2022-08-01T05:23:28;9.43;;;4.45;;
69985;SDS011;57328;52.054;5.294;2022-08-01T05:26:07;10.43;;;4.63;;
69985;SDS011;57328;52.054;5.294;2022-08-01T05:28:35;9.85;;;3.88;;
69985;SDS011;57328;52.054;5.294;2022-08-01T05:31:02;6.82;;;2.70;;
69985;SDS011;57328;52.054;5.294;2022-08-01T05:33:30;6.10;;;2.80;;
69985;SDS011;57328;52.054;5.294;2022-08-01T05:35:57;6.45;;;2.92;;
69985;SDS011;57328;52.054;5.294;2022-08-01T05:38:24;6.90;;;2.80;;
69985;SDS011;57328;52.054;5.294;2022-08-01T05:40:54;6.30;;;2.50;;
69985;SDS011;57328;52.054;5.294;2022-08-01T05:43:21;4.88;;;1.98;;
69985;SDS011;57328;52.054;5.294;2022-08-01T05:45:54;4.93;;;2.45;;
69985;SDS011;57328;52.054;5.294;2022-08-01T05:48:21;4.47;;;2.33;;
69985;SDS011;57328;52.054;5.294;2022-08-01T05:50:48;5.80;;;2.33;;
69985;SDS011;57328;52.054;5.294;2022-08-01T05:53:19;4.55;;;2.03;;
69985;SDS011;57328;52.054;5.294;2022-08-01T05:55:47;6.00;;;2.38;;
69985;SDS011;57328;52.054;5.294;2022-08-01T05:58:14;3.42;;;1.70;;
69985;SDS011;57328;52.054;5.294;2022-08-01T06:00:41;4.93;;;2.03;;
69985;SDS011;57328;52.054;5.294;2022-08-01T06:03:08;6.88;;;2.50;;
69985;SDS011;57328;52.054;5.294;2022-08-01T06:05:37;5.05;;;2.00;;
69985;SDS011;57328;52.054;5.294;2022-08-01T06:08:04;6.10;;;2.22;;
69985;SDS011;57328;52.054;5.294;2022-08-01T06:10:32;3.65;;;1.90;;
69985;SDS011;57328;52.054;5.294;2022-08-01T06:12:59;4.25;;;2.38;;
69985;SDS011;57328;52.054;5.294;2022-08-01T06:15:29;5.40;;;2.00;;
69985;SDS011;57328;52.054;5.294;2022-08-01T06:17:56;3.65;;;1.90;;
69985;SDS011;57328;52.054;5.294;2022-08-01T06:20:24;3.65;;;1.88;;
69985;SDS011;57328;52.054;5.294;2022-08-01T06:22:51;3.72;;;1.80;;
69985;SDS011;57328;52.054;5.294;2022-08-01T06:25:18;3.78;;;1.83;;
69985;SDS011;57328;52.054;5.294;2022-08-01T06:27:46;4.82;;;2.03;;
69985;SDS011;57328;52.054;5.294;2022-08-01T06:30:13;3.30;;;1.50;;
69985;SDS011;57328;52.054;5.294;2022-08-01T06:32:41;2.55;;;1.20;;
69985;SDS011;57328;52.054;5.294;2022-08-01T06:35:08;2.78;;;1.17;;
69985;SDS011;57328;52.054;5.294;2022-08-01T06:37:35;2.67;;;1.45;;
69985;SDS011;57328;52.054;5.294;2022-08-01T06:40:03;3.67;;;1.60;;
69985;SDS011;57328;52.054;5.294;2022-08-01T06:42:30;5.15;;;1.73;;
69985;SDS011;57328;52.054;5.294;2022-08-01T06:45:04;2.55;;;1.30;;
69985;SDS011;57328;52.054;5.294;2022-08-01T06:47:32;2.33;;;1.23;;
69985;SDS011;57328;52.054;5.294;2022-08-01T06:49:59;2.05;;;1.17;;
69985;SDS011;57328;52.054;5.294;2022-08-01T06:52:26;4.85;;;1.17;;
69985;SDS011;57328;52.054;5.294;2022-08-01T06:54:53;2.13;;;1.25;;
69985;SDS011;57328;52.054;5.294;2022-08-01T06:57:20;3.13;;;1.45;;
69985;SDS011;57328;52.054;5.294;2022-08-01T06:59:48;3.05;;;1.40;;
69985;SDS011;57328;52.054;5.294;2022-08-01T07:02:19;1.95;;;1.15;;
69985;SDS011;57328;52.054;5.294;2022-08-01T07:04:47;2.95;;;1.50;;
69985;SDS011;57328;52.054;5.294;2022-08-01T07:07:14;4.63;;;1.30;;
69985;SDS011;57328;52.054;5.294;2022-08-01T07:09:41;3.55;;;1.38;;
69985;SDS011;57328;52.054;5.294;2022-08-01T07:12:08;3.03;;;1.25;;
69985;SDS011;57328;52.054;5.294;2022-08-01T07:14:36;4.05;;;1.40;;
69985;SDS011;57328;52.054;5.294;2022-08-01T07:17:03;2.95;;;1.17;;
69985;SDS011;57328;52.054;5.294;2022-08-01T07:19:30;2.03;;;1.30;;
69985;SDS011;57328;52.054;5.294;2022-08-01T07:21:57;3.20;;;1.20;;
69985;SDS011;57328;52.054;5.294;2022-08-01T07:24:24;2.25;;;1.15;;
69985;SDS011;57328;52.054;5.294;2022-08-01T07:26:53;3.58;;;1.40;;
69985;SDS011;57328;52.054;5.294;2022-08-01T07:29:21;1.95;;;1.20;;
69985;SDS011;57328;52.054;5.294;2022-08-01T07:31:49;2.40;;;1.40;;
69985;SDS011;57328;52.054;5.294;2022-08-01T07:34:16;3.78;;;1.25;;
69985;SDS011;57328;52.054;5.294;2022-08-01T07:36:44;3.60;;;1.67;;
69985;SDS011;57328;52.054;5.294;2022-08-01T07:39:12;2.65;;;1.40;;
69985;SDS011;57328;52.054;5.294;2022-08-01T07:41:39;2.42;;;1.20;;
69985;SDS011;57328;52.054;5.294;2022-08-01T07:44:26;3.28;;;1.38;;
69985;SDS011;57328;52.054;5.294;2022-08-01T07:49:21;2.95;;;1.30;;
69985;SDS011;57328;52.054;5.294;2022-08-01T07:51:48;2.88;;;1.30;;
69985;SDS011;57328;52.054;5.294;2022-08-01T07:54:29;3.17;;;0.98;;
69985;SDS011;57328;52.054;5.294;2022-08-01T07:56:59;3.75;;;1.20;;
69985;SDS011;57328;52.054;5.294;2022-08-01T07:59:27;5.00;;;1.70;;
69985;SDS011;57328;52.054;5.294;2022-08-01T08:01:54;6.28;;;1.83;;
69985;SDS011;57328;52.054;5.294;2022-08-01T08:04:21;10.63;;;2.22;;
69985;SDS011;57328;52.054;5.294;2022-08-01T08:06:49;7.97;;;1.95;;
69985;SDS011;57328;52.054;5.294;2022-08-01T08:09:17;8.48;;;2.33;;
69985;SDS011;57328;52.054;5.294;2022-08-01T08:11:44;12.15;;;2.50;;
69985;SDS011;57328;52.054;5.294;2022-08-01T08:14:13;11.50;;;2.78;;
69985;SDS011;57328;52.054;5.294;2022-08-01T08:16:41;12.52;;;2.72;;
69985;SDS011;57328;52.054;5.294;2022-08-01T08:19:08;11.45;;;2.83;;
69985;SDS011;57328;52.054;5.294;2022-08-01T08:21:39;10.70;;;2.65;;
69985;SDS011;57328;52.054;5.294;2022-08-01T08:24:07;13.52;;;2.75;;
69985;SDS011;57328;52.054;5.294;2022-08-01T08:26:56;8.80;;;2.33;;
69985;SDS011;57328;52.054;5.294;2022-08-01T08:29:24;11.30;;;2.63;;
69985;SDS011;57328;52.054;5.294;2022-08-01T08:31:52;13.75;;;3.20;;
69985;SDS011;57328;52.054;5.294;2022-08-01T08:34:22;16.30;;;3.90;;
69985;SDS011;57328;52.054;5.294;2022-08-01T08:36:49;12.73;;;2.65;;
69985;SDS011;57328;52.054;5.294;2022-08-01T08:39:17;13.23;;;2.78;;
69985;SDS011;57328;52.054;5.294;2022-08-01T08:41:45;11.65;;;2.90;;
69985;SDS011;57328;52.054;5.294;2022-08-01T08:44:14;14.88;;;2.80;;
69985;SDS011;57328;52.054;5.294;2022-08-01T08:46:49;14.70;;;3.03;;
69985;SDS011;57328;52.054;5.294;2022-08-01T08:49:18;12.63;;;2.83;;
69985;SDS011;57328;52.054;5.294;2022-08-01T08:51:50;15.60;;;3.38;;
69985;SDS011;57328;52.054;5.294;2022-08-01T08:54:19;12.43;;;2.78;;
69985;SDS011;57328;52.054;5.294;2022-08-01T08:56:46;10.90;;;3.03;;
69985;SDS011;57328;52.054;5.294;2022-08-01T08:59:14;12.40;;;2.88;;
69985;SDS011;57328;52.054;5.294;2022-08-01T09:01:41;14.13;;;2.90;;
69985;SDS011;57328;52.054;5.294;2022-08-01T09:04:09;11.98;;;2.90;;
69985;SDS011;57328;52.054;5.294;2022-08-01T09:06:37;12.23;;;2.92;;
69985;SDS011;57328;52.054;5.294;2022-08-01T09:09:05;10.80;;;2.55;;
69985;SDS011;57328;52.054;5.294;2022-08-01T09:11:32;11.65;;;3.25;;
69985;SDS011;57328;52.054;5.294;2022-08-01T09:14:00;10.45;;;2.60;;
69985;SDS011;57328;52.054;5.294;2022-08-01T09:16:28;9.98;;;2.80;;
69985;SDS011;57328;52.054;5.294;2022-08-01T09:19:05;11.85;;;2.40;;
69985;SDS011;57328;52.054;5.294;2022-08-01T09:21:57;10.40;;;2.75;;
69985;SDS011;57328;52.054;5.294;2022-08-01T09:24:25;10.07;;;2.50;;
69985;SDS011;57328;52.054;5.294;2022-08-01T09:26:56;13.57;;;3.75;;
69985;SDS011;57328;52.054;5.294;2022-08-01T09:29:27;12.02;;;2.83;;
69985;SDS011;57328;52.054;5.294;2022-08-01T09:32:04;12.40;;;2.70;;
69985;SDS011;57328;52.054;5.294;2022-08-01T09:34:33;14.35;;;2.42;;
69985;SDS011;57328;52.054;5.294;2022-08-01T09:37:01;10.75;;;2.47;;
69985;SDS011;57328;52.054;5.294;2022-08-01T09:39:34;11.88;;;2.67;;
69985;SDS011;57328;52.054;5.294;2022-08-01T09:42:18;8.70;;;2.20;;
69985;SDS011;57328;52.054;5.294;2022-08-01T09:44:54;10.95;;;2.45;;
69985;SDS011;57328;52.054;5.294;2022-08-01T09:47:21;6.60;;;1.90;;
69985;SDS011;57328;52.054;5.294;2022-08-01T09:49:54;7.38;;;2.22;;
69985;SDS011;57328;52.054;5.294;2022-08-01T09:52:25;8.65;;;2.25;;
69985;SDS011;57328;52.054;5.294;2022-08-01T09:57:21;8.52;;;2.13;;
69985;SDS011;57328;52.054;5.294;2022-08-01T09:59:50;8.55;;;2.17;;
69985;SDS011;57328;52.054;5.294;2022-08-01T10:02:30;5.40;;;1.83;;
69985;SDS011;57328;52.054;5.294;2022-08-01T10:04:59;9.27;;;1.60;;
69985;SDS011;57328;52.054;5.294;2022-08-01T10:07:33;10.18;;;2.05;;
69985;SDS011;57328;52.054;5.294;2022-08-01T10:10:10;6.43;;;2.30;;
69985;SDS011;57328;52.054;5.294;2022-08-01T10:12:39;10.68;;;1.75;;
69985;SDS011;57328;52.054;5.294;2022-08-01T10:15:09;5.70;;;1.60;;
69985;SDS011;57328;52.054;5.294;2022-08-01T10:17:39;6.68;;;1.50;;
69985;SDS011;57328;52.054;5.294;2022-08-01T10:20:17;8.52;;;1.50;;
69985;SDS011;57328;52.054;5.294;2022-08-01T10:22:58;9.80;;;1.42;;
69985;SDS011;57328;52.054;5.294;2022-08-01T10:25:35;6.65;;;1.60;;
69985;SDS011;57328;52.054;5.294;2022-08-01T10:28:15;8.13;;;1.83;;
69985;SDS011;57328;52.054;5.294;2022-08-01T10:33:17;7.72;;;1.50;;
69985;SDS011;57328;52.054;5.294;2022-08-01T10:36:05;7.70;;;1.60;;
69985;SDS011;57328;52.054;5.294;2022-08-01T10:38:34;9.93;;;1.80;;
69985;SDS011;57328;52.054;5.294;2022-08-01T10:41:03;8.07;;;1.50;;
69985;SDS011;57328;52.054;5.294;2022-08-01T10:43:34;7.85;;;1.60;;
69985;SDS011;57328;52.054;5.294;2022-08-01T10:46:02;7.68;;;1.35;;
69985;SDS011;57328;52.054;5.294;2022-08-01T10:48:37;7.10;;;1.48;;
69985;SDS011;57328;52.054;5.294;2022-08-01T10:51:08;5.75;;;1.30;;
69985;SDS011;57328;52.054;5.294;2022-08-01T10:53:47;5.20;;;1.40;;
69985;SDS011;57328;52.054;5.294;2022-08-01T10:56:19;10.02;;;1.60;;
69985;SDS011;57328;52.054;5.294;2022-08-01T10:58:55;6.72;;;1.65;;
69985;SDS011;57328;52.054;5.294;2022-08-01T11:01:32;6.53;;;1.48;;
69985;SDS011;57328;52.054;5.294;2022-08-01T11:04:12;7.45;;;1.50;;
69985;SDS011;57328;52.054;5.294;2022-08-01T11:11:58;6.07;;;1.55;;
69985;SDS011;57328;52.054;5.294;2022-08-01T11:14:33;9.70;;;1.75;;
69985;SDS011;57328;52.054;5.294;2022-08-01T11:17:54;7.10;;;1.83;;
69985;SDS011;57328;52.054;5.294;2022-08-01T11:20:15;7.05;;;1.67;;
69985;SDS011;57328;52.054;5.294;2022-08-01T11:28:27;10.95;;;1.80;;
69985;SDS011;57328;52.054;5.294;2022-08-01T11:38:44;8.18;;;1.50;;
69985;SDS011;57328;52.054;5.294;2022-08-01T11:41:12;11.07;;;1.70;;
69985;SDS011;57328;52.054;5.294;2022-08-01T11:46:07;6.18;;;1.73;;
69985;SDS011;57328;52.054;5.294;2022-08-01T11:48:34;7.65;;;1.60;;
69985;SDS011;57328;52.054;5.294;2022-08-01T11:51:01;7.47;;;1.63;;
69985;SDS011;57328;52.054;5.294;2022-08-01T11:53:29;9.15;;;1.90;;
69985;SDS011;57328;52.054;5.294;2022-08-01T11:55:58;5.72;;;1.38;;
69985;SDS011;57328;52.054;5.294;2022-08-01T11:58:27;7.03;;;1.42;;
69985;SDS011;57328;52.054;5.294;2022-08-01T12:00:57;5.45;;;1.40;;
69985;SDS011;57328;52.054;5.294;2022-08-01T12:03:32;6.90;;;1.65;;
69985;SDS011;57328;52.054;5.294;2022-08-01T12:06:00;6.20;;;1.33;;
69985;SDS011;57328;52.054;5.294;2022-08-01T12:08:28;6.75;;;1.40;;
69985;SDS011;57328;52.054;5.294;2022-08-01T12:10:56;5.63;;;1.48;;
69985;SDS011;57328;52.054;5.294;2022-08-01T12:13:27;8.18;;;1.40;;
69985;SDS011;57328;52.054;5.294;2022-08-01T12:15:56;5.00;;;1.08;;
69985;SDS011;57328;52.054;5.294;2022-08-01T12:18:24;2.67;;;0.60;;
69985;SDS011;57328;52.054;5.294;2022-08-01T12:23:22;6.60;;;1.23;;
69985;SDS011;57328;52.054;5.294;2022-08-01T12:25:53;6.25;;;1.20;;
69985;SDS011;57328;52.054;5.294;2022-08-01T12:28:20;5.40;;;1.20;;
69985;SDS011;57328;52.054;5.294;2022-08-01T12:30:47;6.00;;;1.27;;
69985;SDS011;57328;52.054;5.294;2022-08-01T12:33:19;4.80;;;1.30;;
69985;SDS011;57328;52.054;5.294;2022-08-01T12:35:47;6.10;;;1.25;;
69985;SDS011;57328;52.054;5.294;2022-08-01T12:38:15;4.60;;;1.20;;
69985;SDS011;57328;52.054;5.294;2022-08-01T12:40:43;4.28;;;1.00;;
69985;SDS011;57328;52.054;5.294;2022-08-01T12:43:15;1.90;;;0.80;;
69985;SDS011;57328;52.054;5.294;2022-08-01T12:45:54;1.77;;;0.75;;
69985;SDS011;57328;52.054;5.294;2022-08-01T12:48:23;4.05;;;1.02;;
69985;SDS011;57328;52.054;5.294;2022-08-01T12:50:51;5.18;;;1.10;;
69985;SDS011;57328;52.054;5.294;2022-08-01T12:53:19;3.60;;;0.80;;
69985;SDS011;57328;52.054;5.294;2022-08-01T12:55:48;2.95;;;0.80;;
69985;SDS011;57328;52.054;5.294;2022-08-01T12:58:30;1.80;;;0.73;;
69985;SDS011;57328;52.054;5.294;2022-08-01T13:01:07;6.75;;;1.05;;
69985;SDS011;57328;52.054;5.294;2022-08-01T13:03:35;4.50;;;1.20;;
69985;SDS011;57328;52.054;5.294;2022-08-01T13:06:09;3.40;;;1.35;;
69985;SDS011;57328;52.054;5.294;2022-08-01T13:08:37;3.50;;;0.80;;
69985;SDS011;57328;52.054;5.294;2022-08-01T13:11:05;1.60;;;0.77;;
69985;SDS011;57328;52.054;5.294;2022-08-01T13:13:37;6.00;;;1.00;;
69985;SDS011;57328;52.054;5.294;2022-08-01T13:16:05;4.38;;;0.85;;
69985;SDS011;57328;52.054;5.294;2022-08-01T13:18:40;4.03;;;0.90;;
69985;SDS011;57328;52.054;5.294;2022-08-01T13:21:11;6.18;;;1.00;;
69985;SDS011;57328;52.054;5.294;2022-08-01T13:23:40;4.82;;;0.90;;
69985;SDS011;57328;52.054;5.294;2022-08-01T13:26:39;3.88;;;0.98;;
69985;SDS011;57328;52.054;5.294;2022-08-01T13:29:07;3.13;;;0.82;;
69985;SDS011;57328;52.054;5.294;2022-08-01T13:34:02;6.38;;;1.30;;
69985;SDS011;57328;52.054;5.294;2022-08-01T13:38:57;8.10;;;1.20;;
69985;SDS011;57328;52.054;5.294;2022-08-01T13:44:10;2.92;;;1.10;;
69985;SDS011;57328;52.054;5.294;2022-08-01T13:46:40;6.60;;;1.30;;
69985;SDS011;57328;52.054;5.294;2022-08-01T13:49:16;4.18;;;0.90;;
69985;SDS011;57328;52.054;5.294;2022-08-01T13:51:45;4.85;;;1.10;;
69985;SDS011;57328;52.054;5.294;2022-08-01T13:54:12;2.67;;;0.90;;
69985;SDS011;57328;52.054;5.294;2022-08-01T13:56:43;4.20;;;0.90;;
69985;SDS011;57328;52.054;5.294;2022-08-01T13:59:10;2.97;;;1.00;;
69985;SDS011;57328;52.054;5.294;2022-08-01T14:01:38;2.20;;;0.80;;
69985;SDS011;57328;52.054;5.294;2022-08-01T14:04:05;2.70;;;0.85;;
69985;SDS011;57328;52.054;5.294;2022-08-01T14:06:32;3.28;;;0.90;;
69985;SDS011;57328;52.054;5.294;2022-08-01T14:09:02;4.90;;;1.00;;
69985;SDS011;57328;52.054;5.294;2022-08-01T14:11:43;4.30;;;0.90;;
69985;SDS011;57328;52.054;5.294;2022-08-01T14:14:11;2.25;;;0.60;;
69985;SDS011;57328;52.054;5.294;2022-08-01T14:16:38;3.35;;;0.90;;
69985;SDS011;57328;52.054;5.294;2022-08-01T14:19:05;3.45;;;0.90;;
69985;SDS011;57328;52.054;5.294;2022-08-01T14:21:33;4.25;;;0.93;;
69985;SDS011;57328;52.054;5.294;2022-08-01T14:24:00;3.78;;;0.95;;
69985;SDS011;57328;52.054;5.294;2022-08-01T14:26:27;3.40;;;0.80;;
69985;SDS011;57328;52.054;5.294;2022-08-01T14:28:55;2.15;;;0.75;;
69985;SDS011;57328;52.054;5.294;2022-08-01T14:31:26;2.88;;;0.80;;
69985;SDS011;57328;52.054;5.294;2022-08-01T14:33:59;3.03;;;0.70;;
69985;SDS011;57328;52.054;5.294;2022-08-01T14:36:26;1.65;;;0.82;;
69985;SDS011;57328;52.054;5.294;2022-08-01T14:38:57;1.92;;;0.63;;
69985;SDS011;57328;52.054;5.294;2022-08-01T14:41:26;3.50;;;0.95;;
69985;SDS011;57328;52.054;5.294;2022-08-01T14:43:56;4.55;;;0.90;;
69985;SDS011;57328;52.054;5.294;2022-08-01T14:46:23;2.90;;;0.90;;
69985;SDS011;57328;52.054;5.294;2022-08-01T14:48:51;3.35;;;0.80;;
69985;SDS011;57328;52.054;5.294;2022-08-01T14:51:18;2.83;;;0.70;;
69985;SDS011;57328;52.054;5.294;2022-08-01T14:53:45;2.45;;;0.65;;
69985;SDS011;57328;52.054;5.294;2022-08-01T14:56:18;0.88;;;0.73;;
69985;SDS011;57328;52.054;5.294;2022-08-01T14:58:45;1.88;;;0.60;;
69985;SDS011;57328;52.054;5.294;2022-08-01T15:01:15;1.90;;;0.93;;
69985;SDS011;57328;52.054;5.294;2022-08-01T15:03:44;1.50;;;0.60;;
69985;SDS011;57328;52.054;5.294;2022-08-01T15:06:12;1.52;;;0.90;;
69985;SDS011;57328;52.054;5.294;2022-08-01T15:08:39;3.17;;;1.00;;
69985;SDS011;57328;52.054;5.294;2022-08-01T15:11:07;7.50;;;1.15;;
69985;SDS011;57328;52.054;5.294;2022-08-01T15:13:35;3.10;;;0.80;;
69985;SDS011;57328;52.054;5.294;2022-08-01T15:16:07;2.13;;;0.60;;
69985;SDS011;57328;52.054;5.294;2022-08-01T15:18:37;2.42;;;0.80;;
69985;SDS011;57328;52.054;5.294;2022-08-01T15:21:07;1.70;;;0.77;;
69985;SDS011;57328;52.054;5.294;2022-08-01T15:23:45;2.47;;;0.63;;
69985;SDS011;57328;52.054;5.294;2022-08-01T15:26:13;2.35;;;0.90;;
69985;SDS011;57328;52.054;5.294;2022-08-01T15:28:40;1.48;;;0.60;;
69985;SDS011;57328;52.054;5.294;2022-08-01T15:31:10;2.45;;;0.73;;
69985;SDS011;57328;52.054;5.294;2022-08-01T15:33:39;1.95;;;0.73;;
69985;SDS011;57328;52.054;5.294;2022-08-01T15:36:07;1.92;;;0.68;;
69985;SDS011;57328;52.054;5.294;2022-08-01T15:38:40;4.35;;;0.85;;
69985;SDS011;57328;52.054;5.294;2022-08-01T15:41:08;2.58;;;0.80;;
69985;SDS011;57328;52.054;5.294;2022-08-01T15:43:35;4.72;;;1.15;;
69985;SDS011;57328;52.054;5.294;2022-08-01T15:46:10;4.72;;;0.90;;
69985;SDS011;57328;52.054;5.294;2022-08-01T15:48:38;2.33;;;0.60;;
69985;SDS011;57328;52.054;5.294;2022-08-01T15:51:06;2.45;;;0.73;;
69985;SDS011;57328;52.054;5.294;2022-08-01T15:53:33;2.45;;;0.60;;
69985;SDS011;57328;52.054;5.294;2022-08-01T15:56:01;3.47;;;0.82;;
69985;SDS011;57328;52.054;5.294;2022-08-01T15:58:33;2.60;;;0.90;;
69985;SDS011;57328;52.054;5.294;2022-08-01T16:01:00;3.20;;;0.70;;